createdAt,value
2022-08-26T00:02:12.774Z,6.28
2022-08-26T00:04:41.648Z,6.00
2022-08-26T00:07:10.531Z,6.22
2022-08-26T00:09:40.181Z,5.47
2022-08-26T00:12:12.457Z,5.43
2022-08-26T00:14:42.230Z,5.40
2022-08-26T00:17:11.089Z,5.05
2022-08-26T00:19:39.182Z,5.55
2022-08-26T00:22:07.400Z,4.97
2022-08-26T00:24:35.648Z,5.25
2022-08-26T00:27:03.752Z,5.75
2022-08-26T00:29:34.942Z,5.55
2022-08-26T00:32:07.696Z,4.85
2022-08-26T00:34:36.543Z,5.40
2022-08-26T00:37:04.923Z,5.72
2022-08-26T00:39:38.129Z,5.60
2022-08-26T00:42:06.312Z,5.97
2022-08-26T00:44:34.183Z,5.20
2022-08-26T00:47:06.617Z,4.37
2022-08-26T00:49:39.685Z,5.03
2022-08-26T00:52:11.949Z,5.18
2022-08-26T00:54:46.647Z,5.37
2022-08-26T00:57:18.084Z,5.25
2022-08-26T00:59:48.550Z,5.95
2022-08-26T01:02:20.798Z,6.62
2022-08-26T01:04:54.387Z,5.75
2022-08-26T01:07:26.320Z,5.82
2022-08-26T01:09:55.985Z,4.47
2022-08-26T01:12:25.618Z,5.80
2022-08-26T01:14:53.771Z,6.32
2022-08-26T01:17:22.136Z,6.05
2022-08-26T01:19:56.558Z,6.15
2022-08-26T01:22:30.794Z,6.15
2022-08-26T01:25:03.579Z,6.30
2022-08-26T01:27:33.007Z,5.50
2022-08-26T01:30:03.001Z,5.72
2022-08-26T01:32:34.246Z,5.07
2022-08-26T01:35:03.340Z,5.22
2022-08-26T01:37:36.873Z,4.78
2022-08-26T01:40:14.028Z,5.60
2022-08-26T01:42:46.582Z,5.43
2022-08-26T01:45:19.650Z,5.70
2022-08-26T01:47:49.526Z,5.15
2022-08-26T01:50:30.100Z,4.82
2022-08-26T01:53:01.942Z,5.05
2022-08-26T01:55:33.375Z,5.70
2022-08-26T01:58:06.352Z,5.90
2022-08-26T02:00:36.254Z,7.03
2022-08-26T02:03:18.545Z,6.10
2022-08-26T02:05:48.837Z,7.00
2022-08-26T02:08:24.522Z,7.22
2022-08-26T02:10:55.812Z,6.85
2022-08-26T02:13:28.527Z,7.30
2022-08-26T02:15:57.387Z,7.30
2022-08-26T02:18:26.519Z,7.57
2022-08-26T02:20:57.252Z,7.30
2022-08-26T02:23:25.636Z,6.82
2022-08-26T02:25:59.793Z,6.80
2022-08-26T02:28:32.150Z,7.18
2022-08-26T02:31:00.319Z,6.93
2022-08-26T02:33:31.131Z,7.32
2022-08-26T02:36:00.153Z,7.15
2022-08-26T02:38:29.396Z,7.75
2022-08-26T02:40:59.177Z,7.10
2022-08-26T02:43:31.357Z,7.25
2022-08-26T02:46:02.577Z,6.93
2022-08-26T02:48:31.196Z,6.68
2022-08-26T02:51:01.893Z,6.28
2022-08-26T02:53:32.099Z,7.30
2022-08-26T02:56:05.231Z,6.90
2022-08-26T02:58:33.560Z,7.30
2022-08-26T03:01:02.527Z,6.65
2022-08-26T03:03:35.734Z,7.90
2022-08-26T03:06:03.671Z,7.82
2022-08-26T03:08:31.589Z,9.98
2022-08-26T03:11:01.600Z,8.13
2022-08-26T03:13:31.280Z,6.93
2022-08-26T03:16:01.688Z,7.57
2022-08-26T03:18:30.082Z,7.18
2022-08-26T03:20:58.560Z,7.68
2022-08-26T03:23:26.669Z,7.15
2022-08-26T03:25:55.556Z,6.72
2022-08-26T03:28:23.942Z,7.35
2022-08-26T03:30:57.042Z,7.50
2022-08-26T03:33:25.626Z,7.05
2022-08-26T03:35:54.719Z,7.85
2022-08-26T03:38:25.263Z,7.62
2022-08-26T03:40:53.362Z,7.55
2022-08-26T03:43:22.338Z,7.57
2022-08-26T03:45:51.314Z,7.07
2022-08-26T03:48:21.787Z,8.15
2022-08-26T03:50:49.845Z,7.53
2022-08-26T03:53:20.574Z,7.28
2022-08-26T03:55:52.037Z,6.82
2022-08-26T03:58:20.480Z,7.10
2022-08-26T04:00:48.416Z,7.28
2022-08-26T04:03:39.280Z,7.45
2022-08-26T04:06:08.082Z,7.82
2022-08-26T04:08:37.625Z,6.50
2022-08-26T04:11:07.287Z,6.45
2022-08-26T04:13:35.785Z,7.60
2022-08-26T04:16:04.466Z,6.50
2022-08-26T04:18:37.261Z,7.20
2022-08-26T04:21:09.319Z,6.45
2022-08-26T04:23:47.223Z,6.35
2022-08-26T04:26:16.928Z,6.60
2022-08-26T04:28:44.911Z,7.05
2022-08-26T04:31:14.647Z,7.35
2022-08-26T04:33:47.117Z,6.62
2022-08-26T04:36:17.651Z,6.95
2022-08-26T04:38:50.650Z,8.23
2022-08-26T04:41:20.461Z,8.48
2022-08-26T04:43:50.357Z,7.35
2022-08-26T04:46:22.736Z,7.75
2022-08-26T04:48:53.308Z,7.07
2022-08-26T04:51:27.340Z,7.47
2022-08-26T04:53:57.012Z,7.57
2022-08-26T04:56:26.221Z,8.68
2022-08-26T04:58:54.516Z,7.32
2022-08-26T05:01:23.883Z,9.02
2022-08-26T05:03:54.794Z,8.00
2022-08-26T05:06:23.184Z,7.47
2022-08-26T05:08:51.498Z,8.65
2022-08-26T05:11:22.135Z,7.72
2022-08-26T05:13:50.635Z,8.27
2022-08-26T05:16:19.405Z,8.52
2022-08-26T05:18:48.208Z,8.38
2022-08-26T05:21:23.129Z,8.27
2022-08-26T05:23:52.538Z,8.68
2022-08-26T05:26:23.204Z,7.75
2022-08-26T05:28:51.566Z,7.95
2022-08-26T05:31:26.170Z,8.70
2022-08-26T05:33:54.688Z,7.50
2022-08-26T05:36:26.973Z,7.45
2022-08-26T05:38:55.466Z,8.10
2022-08-26T05:41:28.248Z,9.05
2022-08-26T05:44:05.896Z,9.07
2022-08-26T05:46:35.127Z,8.13
2022-08-26T05:49:04.948Z,8.52
2022-08-26T05:51:35.939Z,8.25
2022-08-26T05:54:06.630Z,7.82
2022-08-26T05:56:34.604Z,8.90
2022-08-26T05:59:02.967Z,8.63
2022-08-26T06:01:35.725Z,8.18
2022-08-26T06:04:04.880Z,8.73
2022-08-26T06:06:35.725Z,8.60
2022-08-26T06:09:07.076Z,8.00
2022-08-26T06:11:39.663Z,9.15
2022-08-26T06:14:08.729Z,8.07
2022-08-26T06:16:40.901Z,7.45
2022-08-26T06:19:11.952Z,8.45
2022-08-26T06:21:43.004Z,7.87
2022-08-26T06:24:31.856Z,8.05
2022-08-26T06:27:03.914Z,8.63
2022-08-26T06:29:34.962Z,8.32
2022-08-26T06:32:05.434Z,7.95
2022-08-26T06:34:34.153Z,8.65
2022-08-26T06:37:06.387Z,8.27
2022-08-26T06:39:35.356Z,7.93
2022-08-26T06:42:08.200Z,8.50
2022-08-26T06:44:36.354Z,8.35
2022-08-26T06:47:04.410Z,8.20
2022-08-26T06:49:32.530Z,8.82
2022-08-26T06:52:00.684Z,8.20
2022-08-26T06:54:31.714Z,8.02
2022-08-26T06:57:01.097Z,8.77
2022-08-26T06:59:31.156Z,7.72
2022-08-26T07:01:59.195Z,7.78
2022-08-26T07:04:28.029Z,7.90
2022-08-26T07:06:57.491Z,7.47
2022-08-26T07:09:29.198Z,8.13
2022-08-26T07:11:58.699Z,7.95
2022-08-26T07:14:28.406Z,8.38
2022-08-26T07:16:56.447Z,8.18
2022-08-26T07:19:30.769Z,9.00
2022-08-26T07:22:01.739Z,7.80
2022-08-26T07:24:31.177Z,7.32
2022-08-26T07:27:03.522Z,7.90
2022-08-26T07:29:34.495Z,6.75
2022-08-26T07:32:03.241Z,7.93
2022-08-26T07:34:32.096Z,8.43
2022-08-26T07:37:02.047Z,8.10
2022-08-26T07:39:32.845Z,8.02
2022-08-26T07:42:07.409Z,8.50
2022-08-26T07:44:37.138Z,8.27
2022-08-26T07:47:10.579Z,8.43
2022-08-26T07:49:54.294Z,6.50
2022-08-26T07:52:26.350Z,8.38
2022-08-26T07:54:56.350Z,7.43
2022-08-26T07:57:27.071Z,7.85
2022-08-26T07:59:55.906Z,8.18
2022-08-26T08:02:26.121Z,7.60
2022-08-26T08:04:54.560Z,6.72
2022-08-26T08:07:38.740Z,7.37
2022-08-26T08:10:13.537Z,8.18
2022-08-26T08:12:43.287Z,6.53
2022-08-26T08:15:13.292Z,7.37
2022-08-26T08:17:42.901Z,6.95
2022-08-26T08:20:12.959Z,8.18
2022-08-26T08:22:40.949Z,6.97
2022-08-26T08:25:10.473Z,7.15
2022-08-26T08:27:40.776Z,7.15
2022-08-26T08:30:13.676Z,6.90
2022-08-26T08:32:43.486Z,6.97
2022-08-26T08:35:13.674Z,7.62
2022-08-26T08:37:42.545Z,7.05
2022-08-26T08:40:18.394Z,6.93
2022-08-26T08:45:33.337Z,7.93
2022-08-26T08:48:07.825Z,6.60
2022-08-26T08:50:41.020Z,6.75
2022-08-26T08:53:15.377Z,6.85
2022-08-26T08:55:52.353Z,7.45
2022-08-26T08:58:25.720Z,6.87
2022-08-26T09:01:01.474Z,7.60
2022-08-26T09:03:42.863Z,6.65
2022-08-26T09:06:17.281Z,7.85
2022-08-26T09:08:50.051Z,7.80
2022-08-26T09:11:19.677Z,7.75
2022-08-26T09:13:51.236Z,7.85
2022-08-26T09:16:28.259Z,6.75
2022-08-26T09:19:14.904Z,6.85
2022-08-26T09:21:47.253Z,6.12
2022-08-26T09:24:22.322Z,7.70
2022-08-26T09:26:58.206Z,6.80
2022-08-26T09:29:28.735Z,6.57
2022-08-26T09:32:20.762Z,6.70
2022-08-26T09:34:56.402Z,6.87
2022-08-26T09:37:40.678Z,6.80
2022-08-26T09:40:26.925Z,6.65
2022-08-26T09:43:15.796Z,6.07
2022-08-26T09:45:50.833Z,6.85
2022-08-26T09:48:34.842Z,6.60
2022-08-26T09:51:06.963Z,6.85
2022-08-26T09:53:48.507Z,7.07
2022-08-26T09:56:19.220Z,6.28
2022-08-26T09:58:48.690Z,5.78
2022-08-26T10:01:26.621Z,5.80
2022-08-26T10:04:08.552Z,6.50
2022-08-26T10:06:41.952Z,6.47
2022-08-26T10:09:14.360Z,7.47
2022-08-26T10:11:47.261Z,7.05
2022-08-26T10:14:22.015Z,6.45
2022-08-26T10:16:56.488Z,6.12
2022-08-26T10:19:41.524Z,5.80
2022-08-26T10:22:24.217Z,6.07
2022-08-26T10:24:57.015Z,6.25
2022-08-26T10:27:32.988Z,6.60
2022-08-26T10:30:07.130Z,6.22
2022-08-26T10:32:41.261Z,5.60
2022-08-26T10:35:16.976Z,5.70
2022-08-26T10:37:48.016Z,6.53
2022-08-26T10:40:23.188Z,5.30
2022-08-26T10:42:57.856Z,4.93
2022-08-26T10:45:28.781Z,5.30
2022-08-26T10:48:08.982Z,5.18
2022-08-26T10:50:40.229Z,5.15
2022-08-26T10:53:18.022Z,5.37
2022-08-26T10:55:53.945Z,4.80
2022-08-26T10:58:32.820Z,4.87
2022-08-26T11:01:36.306Z,4.50
2022-08-26T11:04:18.215Z,5.50
2022-08-26T11:07:32.148Z,4.87
2022-08-26T11:10:01.285Z,4.43
2022-08-26T11:12:52.193Z,5.03
2022-08-26T11:16:10.299Z,4.57
2022-08-26T11:18:42.628Z,4.65
2022-08-26T11:21:49.515Z,4.40
2022-08-26T11:25:00.892Z,3.42
2022-08-26T11:28:05.112Z,4.37
2022-08-26T11:30:56.842Z,3.47
2022-08-26T11:33:47.842Z,3.53
2022-08-26T11:36:41.218Z,3.53
2022-08-26T11:39:20.134Z,3.15
2022-08-26T11:41:53.093Z,3.45
2022-08-26T11:44:23.944Z,3.67
2022-08-26T11:46:54.967Z,3.62
2022-08-26T11:49:23.032Z,4.22
2022-08-26T11:51:50.913Z,4.15
2022-08-26T11:54:35.142Z,3.70
2022-08-26T11:57:11.840Z,3.67
2022-08-26T11:59:43.401Z,4.12
2022-08-26T12:02:18.169Z,4.00
2022-08-26T12:04:49.936Z,4.18
2022-08-26T12:07:25.056Z,4.12
2022-08-26T12:09:56.749Z,4.35
2022-08-26T12:12:34.756Z,3.65
2022-08-26T12:15:16.154Z,3.33
2022-08-26T12:17:46.647Z,3.87
2022-08-26T12:20:31.154Z,4.05
2022-08-26T12:23:00.757Z,3.55
2022-08-26T12:25:30.683Z,3.40
2022-08-26T12:28:06.757Z,3.90
2022-08-26T12:30:34.924Z,4.07
2022-08-26T12:33:13.325Z,4.00
2022-08-26T12:35:56.620Z,4.03
2022-08-26T12:38:26.409Z,3.78
2022-08-26T12:40:55.122Z,3.78
2022-08-26T12:43:46.334Z,4.10
2022-08-26T12:46:30.638Z,3.85
2022-08-26T12:49:01.331Z,3.95
2022-08-26T12:51:32.229Z,4.50
2022-08-26T12:54:02.254Z,4.32
2022-08-26T12:56:34.989Z,3.58
2022-08-26T12:59:20.027Z,4.47
2022-08-26T13:01:49.453Z,3.97
2022-08-26T13:04:38.116Z,4.47
2022-08-26T13:07:21.776Z,5.57
2022-08-26T13:09:50.945Z,5.25
2022-08-26T13:12:28.512Z,5.15
2022-08-26T13:14:59.691Z,5.05
2022-08-26T13:17:28.912Z,5.00
2022-08-26T13:20:01.282Z,5.57
2022-08-26T13:22:32.305Z,5.78
2022-08-26T13:25:00.477Z,4.65
2022-08-26T13:27:28.462Z,4.20
2022-08-26T13:29:59.805Z,3.60
2022-08-26T13:32:28.594Z,3.58
2022-08-26T13:34:58.316Z,3.60
2022-08-26T13:37:34.861Z,3.83
2022-08-26T13:40:05.593Z,4.28
2022-08-26T13:42:34.388Z,3.05
2022-08-26T13:45:04.236Z,3.35
2022-08-26T13:47:34.351Z,3.15
2022-08-26T13:50:02.964Z,3.53
2022-08-26T13:52:31.248Z,3.03
2022-08-26T13:55:00.061Z,2.40
2022-08-26T13:57:29.862Z,3.30
2022-08-26T13:59:59.236Z,2.70
2022-08-26T14:02:29.076Z,3.80
2022-08-26T14:04:57.253Z,4.25
2022-08-26T14:07:25.323Z,2.75
2022-08-26T14:09:53.290Z,2.62
2022-08-26T14:12:21.589Z,2.72
2022-08-26T14:14:49.542Z,2.55
2022-08-26T14:17:20.629Z,2.70
2022-08-26T14:19:51.362Z,2.70
2022-08-26T14:22:21.883Z,3.70
2022-08-26T14:24:50.438Z,3.78
2022-08-26T14:27:18.355Z,3.37
2022-08-26T14:29:46.290Z,3.42
2022-08-26T14:32:22.977Z,2.92
2022-08-26T14:34:52.285Z,3.17
2022-08-26T14:37:21.319Z,3.60
2022-08-26T14:39:49.615Z,3.40
2022-08-26T14:42:22.388Z,2.85
2022-08-26T14:44:54.534Z,2.85
2022-08-26T14:47:22.602Z,3.50
2022-08-26T14:49:52.224Z,2.95
2022-08-26T14:52:20.393Z,2.83
2022-08-26T14:54:47.361Z,3.37
2022-08-26T14:57:23.255Z,2.70
2022-08-26T14:59:51.155Z,3.22
2022-08-26T15:02:32.704Z,2.90
2022-08-26T15:05:04.304Z,3.33
2022-08-26T15:07:32.789Z,3.22
2022-08-26T15:10:01.157Z,3.20
2022-08-26T15:12:30.461Z,3.45
2022-08-26T15:15:00.702Z,3.22
2022-08-26T15:17:28.690Z,3.58
2022-08-26T15:19:56.832Z,3.12
2022-08-26T15:22:28.562Z,3.65
2022-08-26T15:24:59.053Z,4.03
2022-08-26T15:27:27.381Z,3.35
2022-08-26T15:29:55.474Z,3.55
2022-08-26T15:32:23.593Z,3.62
2022-08-26T15:34:52.959Z,3.80
2022-08-26T15:37:20.978Z,3.85
2022-08-26T15:39:52.009Z,3.58
2022-08-26T15:42:20.849Z,3.40
2022-08-26T15:44:49.865Z,3.53
2022-08-26T15:47:18.384Z,3.72
2022-08-26T15:49:46.271Z,3.55
2022-08-26T15:52:14.188Z,3.20
2022-08-26T15:54:42.416Z,3.08
2022-08-26T15:57:15.337Z,3.42
2022-08-26T15:59:44.648Z,2.97
2022-08-26T16:02:12.655Z,4.15
2022-08-26T16:04:40.788Z,3.78
2022-08-26T16:07:12.630Z,3.53
2022-08-26T16:09:40.742Z,3.90
2022-08-26T16:12:09.119Z,3.33
2022-08-26T16:14:38.844Z,3.55
2022-08-26T16:17:07.068Z,3.55
2022-08-26T16:19:34.940Z,3.37
2022-08-26T16:22:02.828Z,3.80
2022-08-26T16:24:30.923Z,3.40
2022-08-26T16:26:58.915Z,3.97
2022-08-26T16:29:26.966Z,3.80
2022-08-26T16:31:56.459Z,3.97
2022-08-26T16:34:24.482Z,3.92
2022-08-26T16:36:53.032Z,3.55
2022-08-26T16:39:21.210Z,3.90
2022-08-26T16:41:49.079Z,3.72
2022-08-26T16:44:16.991Z,3.60
2022-08-26T16:46:45.592Z,3.37
2022-08-26T16:49:15.042Z,3.40
2022-08-26T16:51:42.920Z,3.40
2022-08-26T16:54:11.026Z,4.18
2022-08-26T16:56:39.806Z,3.95
2022-08-26T16:59:10.544Z,4.15
2022-08-26T17:01:38.916Z,3.75
2022-08-26T17:04:06.824Z,4.62
2022-08-26T17:06:36.296Z,3.83
2022-08-26T17:09:04.882Z,3.92
2022-08-26T17:11:33.059Z,4.20
2022-08-26T17:14:01.002Z,4.03
2022-08-26T17:16:29.210Z,4.37
2022-08-26T17:18:58.329Z,4.40
2022-08-26T17:21:27.937Z,4.57
2022-08-26T17:23:57.499Z,5.15
2022-08-26T17:26:25.654Z,4.85
2022-08-26T17:28:54.556Z,5.15
2022-08-26T17:31:24.769Z,5.53
2022-08-26T17:33:53.921Z,5.43
2022-08-26T17:36:27.863Z,5.32
2022-08-26T17:38:58.896Z,5.07
2022-08-26T17:41:27.996Z,5.03
2022-08-26T17:43:56.085Z,4.40
2022-08-26T17:46:24.417Z,5.07
2022-08-26T17:48:53.187Z,5.72
2022-08-26T17:51:22.924Z,6.00
2022-08-26T17:53:52.384Z,5.07
2022-08-26T17:56:27.115Z,5.53
2022-08-26T17:58:57.628Z,5.35
2022-08-26T18:01:30.810Z,4.90
2022-08-26T18:04:00.589Z,4.75
2022-08-26T18:06:30.374Z,4.85
2022-08-26T18:08:59.193Z,5.00
2022-08-26T18:11:29.485Z,5.00
2022-08-26T18:13:57.854Z,5.93
2022-08-26T18:16:26.352Z,4.78
2022-08-26T18:18:55.955Z,6.05
2022-08-26T18:21:25.770Z,4.97
2022-08-26T18:23:55.023Z,5.05
2022-08-26T18:26:26.447Z,5.05
2022-08-26T18:28:56.560Z,4.87
2022-08-26T18:31:24.702Z,5.20
2022-08-26T18:33:52.922Z,5.20
2022-08-26T18:36:23.156Z,4.90
2022-08-26T18:38:52.267Z,4.57
2022-08-26T18:41:22.783Z,5.35
2022-08-26T18:43:53.382Z,5.37
2022-08-26T18:46:26.135Z,5.97
2022-08-26T18:48:56.624Z,5.75
2022-08-26T18:51:30.164Z,5.80
2022-08-26T18:53:59.554Z,5.55
2022-08-26T18:56:28.098Z,4.57
2022-08-26T18:58:57.423Z,5.82
2022-08-26T19:01:28.525Z,4.65
2022-08-26T19:03:57.078Z,5.07
2022-08-26T19:06:27.588Z,5.30
2022-08-26T19:08:55.831Z,5.30
2022-08-26T19:11:31.593Z,4.70
2022-08-26T19:14:01.435Z,5.50
2022-08-26T19:16:31.503Z,5.93
2022-08-26T19:19:01.011Z,5.00
2022-08-26T19:21:30.934Z,5.40
2022-08-26T19:24:01.334Z,5.50
2022-08-26T19:26:32.516Z,6.30
2022-08-26T19:29:02.587Z,6.05
2022-08-26T19:31:32.406Z,4.82
2022-08-26T19:34:00.532Z,4.72
2022-08-26T19:36:29.435Z,4.62
2022-08-26T19:38:59.100Z,5.05
2022-08-26T19:41:37.276Z,4.93
2022-08-26T19:44:09.858Z,5.07
2022-08-26T19:49:07.700Z,4.97
2022-08-26T19:51:38.358Z,4.82
2022-08-26T19:54:07.920Z,5.97
2022-08-26T19:56:36.607Z,4.45
2022-08-26T19:59:05.158Z,5.30
2022-08-26T20:01:33.483Z,4.62
2022-08-26T20:04:03.349Z,4.22
2022-08-26T20:06:31.901Z,4.10
2022-08-26T20:09:00.187Z,4.87
2022-08-26T20:11:29.442Z,4.87
2022-08-26T20:13:57.768Z,4.87
2022-08-26T20:16:26.402Z,4.80
2022-08-26T20:19:12.363Z,4.28
2022-08-26T20:21:42.642Z,4.65
2022-08-26T20:24:13.900Z,4.65
2022-08-26T20:26:44.559Z,4.62
2022-08-26T20:29:16.953Z,4.47
2022-08-26T20:31:46.975Z,5.07
2022-08-26T20:34:19.032Z,4.53
2022-08-26T20:36:50.308Z,4.90
2022-08-26T20:39:21.147Z,4.53
2022-08-26T20:41:50.247Z,4.50
2022-08-26T20:44:19.181Z,4.65
2022-08-26T20:46:47.387Z,4.60
2022-08-26T20:49:15.705Z,5.00
2022-08-26T20:51:45.833Z,4.68
2022-08-26T20:54:17.407Z,4.70
2022-08-26T20:56:46.127Z,4.40
2022-08-26T20:59:14.733Z,4.32
2022-08-26T21:01:43.620Z,4.43
2022-08-26T21:04:16.045Z,4.60
2022-08-26T21:06:49.426Z,4.15
2022-08-26T21:09:23.838Z,4.43
2022-08-26T21:11:53.021Z,4.37
2022-08-26T21:14:23.109Z,4.78
2022-08-26T21:16:54.419Z,4.68
2022-08-26T21:19:23.141Z,4.50
2022-08-26T21:21:51.571Z,4.43
2022-08-26T21:24:19.541Z,4.45
2022-08-26T21:26:49.250Z,4.75
2022-08-26T21:29:17.126Z,4.57
2022-08-26T21:31:46.894Z,4.85
2022-08-26T21:34:17.411Z,4.50
2022-08-26T21:36:45.675Z,4.85
2022-08-26T21:39:13.937Z,4.93
2022-08-26T21:41:43.641Z,4.95
2022-08-26T21:44:14.600Z,5.40
2022-08-26T21:46:43.996Z,4.80
2022-08-26T21:49:15.597Z,5.15
2022-08-26T21:51:46.396Z,5.00
2022-08-26T21:54:15.279Z,4.60
2022-08-26T21:56:46.965Z,4.78
2022-08-26T21:59:18.306Z,4.93
2022-08-26T22:01:46.788Z,4.72
2022-08-26T22:04:15.671Z,4.95
2022-08-26T22:06:46.387Z,4.78
2022-08-26T22:09:17.145Z,4.80
2022-08-26T22:11:45.791Z,4.87
2022-08-26T22:14:14.318Z,4.47
2022-08-26T22:16:45.708Z,4.32
2022-08-26T22:19:19.881Z,4.40
2022-08-26T22:21:49.527Z,5.50
2022-08-26T22:24:17.887Z,4.72
2022-08-26T22:26:46.880Z,5.37
2022-08-26T22:29:15.527Z,4.60
2022-08-26T22:31:44.933Z,4.68
2022-08-26T22:34:17.201Z,5.12
2022-08-26T22:36:48.418Z,4.50
2022-08-26T22:39:19.355Z,4.78
2022-08-26T22:41:48.740Z,5.15
2022-08-26T22:44:17.458Z,4.93
2022-08-26T22:46:48.081Z,5.18
2022-08-26T22:49:17.442Z,5.05
2022-08-26T22:51:46.395Z,5.10
2022-08-26T22:54:15.487Z,5.00
2022-08-26T22:56:44.585Z,5.35
2022-08-26T22:59:14.039Z,5.45
2022-08-26T23:01:44.415Z,5.72
2022-08-26T23:04:14.255Z,5.37
2022-08-26T23:06:47.636Z,5.32
2022-08-26T23:09:18.066Z,4.87
2022-08-26T23:11:46.858Z,4.87
2022-08-26T23:14:14.870Z,5.15
2022-08-26T23:16:43.279Z,6.05
2022-08-26T23:19:13.041Z,5.80
2022-08-26T23:21:42.687Z,5.93
2022-08-26T23:24:11.775Z,5.28
2022-08-26T23:26:41.365Z,5.68
2022-08-26T23:29:11.804Z,5.30
2022-08-26T23:31:42.191Z,5.40
2022-08-26T23:34:28.834Z,5.40
2022-08-26T23:37:00.221Z,5.32
2022-08-26T23:39:29.178Z,5.32
2022-08-26T23:41:58.085Z,5.47
2022-08-26T23:44:26.709Z,5.28
2022-08-26T23:46:55.088Z,5.75
2022-08-26T23:49:23.077Z,4.78
2022-08-26T23:52:09.216Z,5.53
2022-08-26T23:54:39.272Z,4.93
2022-08-26T23:57:07.977Z,5.90
2022-08-26T23:59:38.072Z,4.90
